Time;durP1;ratioP1;P1;durP2;ratioP2;P2;SDS_P1;SDS_P2;PMS_P1;PMS_P2;Temp;Humidity;BMP_temperature;BMP_pressure;BME280_temperature;BME280_humidity;BME280_pressure;Samples;Min_cycle;Max_cycle;Signal;HPM_P1;HPM_P2
2023/04/28 00:02:19;;;;;;;65.63;28.25;;;;;;;;;;6276788;28;20044;-46
2023/04/28 00:05:21;;;;;;;68.40;30.27;;;;;;;;;;6279118;28;20391;-51
2023/04/28 00:08:25;;;;;;;;;;;;;;;;;;6281379;28;20759;-46
2023/04/28 00:11:26;;;;;;;56.13;24.63;;;;;;;;;;6282436;28;19925;-48
2023/04/28 00:14:27;;;;;;;57.42;26.13;;;;;;;;;;6279588;28;20055;-51
2023/04/28 00:17:27;;;;;;;60.97;27.20;;;;;;;;;;6284061;28;20798;-49
2023/04/28 00:20:28;;;;;;;69.80;27.48;;;;;;;;;;6283514;28;20053;-47
2023/04/28 00:23:29;;;;;;;62.42;27.08;;;;;;;;;;6282024;28;20521;-53
2023/04/28 00:26:30;;;;;;;64.68;27.50;;;;;;;;;;6284879;28;20048;-47
2023/04/28 00:29:30;;;;;;;72.13;29.33;;;;;;;;;;6289333;28;20055;-58
2023/04/28 00:32:31;;;;;;;63.88;28.25;;;;;;;;;;6289508;28;20067;-56
2023/04/28 00:35:32;;;;;;;60.30;26.30;;;;;;;;;;6283006;28;20041;-54
2023/04/28 00:38:32;;;;;;;58.75;26.23;;;;;;;;;;6285870;28;20118;-48
2023/04/28 00:41:33;;;;;;;55.88;26.30;;;;;;;;;;6291677;28;20080;-50
2023/04/28 00:44:34;;;;;;;62.50;26.83;;;;;;;;;;6297328;28;20040;-54
2023/04/28 00:47:36;;;;;;;60.35;26.85;;;;;;;;;;6288444;28;20143;-47
2023/04/28 00:50:36;;;;;;;62.72;27.38;;;;;;;;;;6285766;28;20056;-47
2023/04/28 00:53:37;;;;;;;65.45;28.65;;;;;;;;;;6289405;28;20766;-48
2023/04/28 00:56:38;;;;;;;68.20;28.95;;;;;;;;;;6295580;28;20094;-51
2023/04/28 00:59:38;;;;;;;66.50;28.88;;;;;;;;;;6280153;28;20037;-47
2023/04/28 01:02:39;;;;;;;62.25;29.02;;;;;;;;;;6273631;28;20045;-48
2023/04/28 01:05:40;;;;;;;68.10;29.13;;;;;;;;;;6275585;28;20494;-50
2023/04/28 01:08:41;;;;;;;67.22;28.58;;;;;;;;;;6273465;28;20093;-57
2023/04/28 01:11:42;;;;;;;73.30;30.33;;;;;;;;;;6274629;28;20057;-46
2023/04/28 01:14:42;;;;;;;73.10;30.63;;;;;;;;;;6274659;28;20052;-49
2023/04/28 01:17:45;;;;;;;68.05;29.83;;;;;;;;;;6275520;28;20051;-46
2023/04/28 01:20:45;;;;;;;68.60;28.90;;;;;;;;;;6273504;28;20048;-51
2023/04/28 01:23:46;;;;;;;76.88;33.30;;;;;;;;;;6275085;28;20051;-47
2023/04/28 01:26:46;;;;;;;81.70;32.25;;;;;;;;;;6275572;28;20094;-47
2023/04/28 01:29:47;;;;;;;84.55;31.80;;;;;;;;;;6275243;28;20048;-51
2023/04/28 01:32:47;;;;;;;70.03;30.60;;;;;;;;;;6292561;28;20036;-50
2023/04/28 01:35:48;;;;;;;69.45;30.98;;;;;;;;;;6277898;28;20549;-48
2023/04/28 01:38:50;;;;;;;84.10;33.75;;;;;;;;;;6271020;28;20033;-54
2023/04/28 01:41:51;;;;;;;81.40;34.22;;;;;;;;;;6271192;28;20093;-48
2023/04/28 01:44:51;;;;;;;82.18;32.72;;;;;;;;;;6270866;28;20032;-51
2023/04/28 01:47:52;;;;;;;82.90;33.83;;;;;;;;;;6270531;28;20044;-50
2023/04/28 01:50:53;;;;;;;79.45;33.90;;;;;;;;;;6272563;28;20048;-51
2023/04/28 01:53:53;;;;;;;75.80;33.30;;;;;;;;;;6286582;28;20048;-52
2023/04/28 01:56:54;;;;;;;77.88;31.67;;;;;;;;;;6285850;28;20044;-48
2023/04/28 01:59:54;;;;;;;86.03;32.55;;;;;;;;;;6291433;28;20059;-50
2023/04/28 02:02:55;;;;;;;92.82;36.63;;;;;;;;;;6274731;28;20447;-46
2023/04/28 02:05:57;;;;;;;86.53;35.17;;;;;;;;;;6268999;28;20061;-47
2023/04/28 02:08:57;;;;;;;92.65;36.80;;;;;;;;;;6291686;28;20048;-51
2023/04/28 02:11:59;;;;;;;83.45;34.88;;;;;;;;;;6273508;28;20093;-46
2023/04/28 02:15:00;;;;;;;93.53;34.58;;;;;;;;;;6271655;28;20040;-47
2023/04/28 02:18:00;;;;;;;88.25;37.05;;;;;;;;;;6269600;28;20677;-48
2023/04/28 02:21:11;;;;;;;95.80;36.65;;;;;;;;;;6267605;28;20056;-56
2023/04/28 02:24:11;;;;;;;94.93;38.22;;;;;;;;;;6271190;28;20044;-48
2023/04/28 02:27:12;;;;;;;98.07;35.72;;;;;;;;;;6271013;28;20036;-49
2023/04/28 02:30:13;;;;;;;89.32;37.08;;;;;;;;;;6272102;28;20488;-47
2023/04/28 02:33:13;;;;;;;97.20;36.75;;;;;;;;;;6289710;28;20048;-47
2023/04/28 02:36:14;;;;;;;93.63;37.35;;;;;;;;;;6276211;28;20570;-48
2023/04/28 02:39:14;;;;;;;91.93;36.92;;;;;;;;;;6270886;28;20036;-52
2023/04/28 02:42:15;;;;;;;92.47;37.20;;;;;;;;;;6269497;28;20472;-46
2023/04/28 02:45:15;;;;;;;98.75;39.53;;;;;;;;;;6271260;28;20041;-48
2023/04/28 02:48:16;;;;;;;96.20;38.05;;;;;;;;;;6271419;28;20154;-46
2023/04/28 02:51:17;;;;;;;106.38;40.80;;;;;;;;;;6269779;28;20040;-48
2023/04/28 02:54:26;;;;;;;104.38;39.13;;;;;;;;;;6268466;28;20521;-48
2023/04/28 02:57:26;;;;;;;114.45;42.40;;;;;;;;;;6267346;28;20045;-54
2023/04/28 03:00:27;;;;;;;108.68;42.85;;;;;;;;;;6268307;28;20482;-53
2023/04/28 03:03:28;;;;;;;105.60;40.78;;;;;;;;;;6269309;28;20041;-48
2023/04/28 03:06:28;;;;;;;114.13;41.22;;;;;;;;;;6270968;28;20061;-46
2023/04/28 03:09:29;;;;;;;103.10;41.10;;;;;;;;;;6268439;28;20045;-49
2023/04/28 03:12:30;;;;;;;112.43;44.72;;;;;;;;;;6266070;28;20048;-47
2023/04/28 03:15:30;;;;;;;114.95;46.05;;;;;;;;;;6269274;28;20041;-47
2023/04/28 03:18:31;;;;;;;126.25;48.38;;;;;;;;;;6276450;28;20132;-47
2023/04/28 03:21:31;;;;;;;112.80;47.00;;;;;;;;;;6265570;28;20060;-50
2023/04/28 03:24:32;;;;;;;113.20;47.97;;;;;;;;;;6270302;28;20070;-57
2023/04/28 03:27:32;;;;;;;134.50;49.75;;;;;;;;;;6269838;28;20053;-45
2023/04/28 03:30:33;;;;;;;126.20;50.13;;;;;;;;;;6268061;28;20044;-46
2023/04/28 03:33:34;;;;;;;137.00;51.97;;;;;;;;;;6267701;28;20905;-54
2023/04/28 03:36:35;;;;;;;124.20;51.00;;;;;;;;;;6268933;28;20136;-47
2023/04/28 03:39:35;;;;;;;141.45;54.55;;;;;;;;;;6269398;28;20883;-48
2023/04/28 03:42:36;;;;;;;144.13;54.90;;;;;;;;;;6268586;28;20484;-50
2023/04/28 03:45:37;;;;;;;140.77;50.42;;;;;;;;;;6268505;28;20049;-46
2023/04/28 03:48:38;;;;;;;132.37;50.20;;;;;;;;;;6269694;28;20048;-48
2023/04/28 03:51:38;;;;;;;124.18;48.92;;;;;;;;;;6267720;28;20056;-47
2023/04/28 03:54:40;;;;;;;129.52;50.30;;;;;;;;;;6269054;28;20053;-47
2023/04/28 03:57:40;;;;;;;136.00;54.33;;;;;;;;;;6267551;28;20550;-47
2023/04/28 04:00:41;;;;;;;146.55;57.95;;;;;;;;;;6266017;28;20301;-49
2023/04/28 04:03:41;;;;;;;148.45;58.08;;;;;;;;;;6266077;28;20047;-51
2023/04/28 04:06:42;;;;;;;151.77;61.58;;;;;;;;;;6266243;28;20565;-47
2023/04/28 04:09:42;;;;;;;154.77;60.72;;;;;;;;;;6266467;28;20048;-50
2023/04/28 04:12:44;;;;;;;159.27;59.83;;;;;;;;;;6264580;28;20041;-47
2023/04/28 04:15:44;;;;;;;163.10;64.05;;;;;;;;;;6263839;28;20083;-47
2023/04/28 04:18:45;;;;;;;174.20;67.63;;;;;;;;;;6266595;28;20045;-48
2023/04/28 04:21:45;;;;;;;162.85;62.17;;;;;;;;;;6266288;28;20052;-50
2023/04/28 04:24:46;;;;;;;153.77;61.22;;;;;;;;;;6267392;28;20071;-48
2023/04/28 04:27:47;;;;;;;141.95;55.60;;;;;;;;;;6267931;28;21163;-50
2023/04/28 04:30:48;;;;;;;152.38;59.67;;;;;;;;;;6269318;28;20097;-48
2023/04/28 04:33:48;;;;;;;144.43;54.67;;;;;;;;;;6263203;28;20376;-50
2023/04/28 04:36:49;;;;;;;150.80;55.40;;;;;;;;;;6265908;28;20048;-50
2023/04/28 04:39:50;;;;;;;142.35;56.05;;;;;;;;;;6268197;28;20033;-47
2023/04/28 04:42:50;;;;;;;147.15;54.80;;;;;;;;;;6267843;28;20052;-55
2023/04/28 04:45:51;;;;;;;141.27;52.72;;;;;;;;;;6275730;28;20088;-47
2023/04/28 04:48:52;;;;;;;142.60;53.42;;;;;;;;;;6269088;28;20447;-48
2023/04/28 04:51:52;;;;;;;137.13;51.05;;;;;;;;;;6265247;28;20045;-49
2023/04/28 04:54:55;;;;;;;128.15;47.85;;;;;;;;;;6265791;28;20090;-48
2023/04/28 04:57:55;;;;;;;;;;;;;;;;;;6269413;28;20044;-60
2023/04/28 05:00:56;;;;;;;134.93;48.10;;;;;;;;;;6266830;28;19929;-50
2023/04/28 05:03:56;;;;;;;131.60;47.28;;;;;;;;;;6264326;28;20483;-49
2023/04/28 05:06:57;;;;;;;128.90;45.53;;;;;;;;;;6266797;28;20076;-50
2023/04/28 05:09:57;;;;;;;128.32;46.08;;;;;;;;;;6279827;28;20047;-50
2023/04/28 05:12:58;;;;;;;125.43;47.03;;;;;;;;;;6264559;28;20072;-47
2023/04/28 05:15:58;;;;;;;129.35;49.60;;;;;;;;;;6265294;28;20048;-48
2023/04/28 05:18:59;;;;;;;129.15;46.53;;;;;;;;;;6264233;28;20056;-51
2023/04/28 05:22:00;;;;;;;130.15;46.78;;;;;;;;;;6268666;28;20048;-48
2023/04/28 05:25:01;;;;;;;112.53;45.05;;;;;;;;;;6265533;28;20063;-49
2023/04/28 05:28:06;;;;;;;114.15;43.92;;;;;;;;;;6268392;28;20044;-46
2023/04/28 05:31:06;;;;;;;108.28;41.65;;;;;;;;;;6265512;28;20508;-47
2023/04/28 05:34:07;;;;;;;107.57;40.42;;;;;;;;;;6271360;28;20051;-47
2023/04/28 05:37:08;;;;;;;107.57;38.92;;;;;;;;;;6271405;28;20128;-49
2023/04/28 05:40:08;;;;;;;106.30;37.38;;;;;;;;;;6267528;28;20107;-46
2023/04/28 05:43:09;;;;;;;106.63;39.75;;;;;;;;;;6267145;28;20703;-49
2023/04/28 05:46:10;;;;;;;112.70;38.80;;;;;;;;;;6273940;28;20048;-48
2023/04/28 05:49:11;;;;;;;103.05;37.83;;;;;;;;;;6268445;28;20048;-49
2023/04/28 05:52:11;;;;;;;103.50;36.67;;;;;;;;;;6266096;28;20041;-49
2023/04/28 05:55:12;;;;;;;110.38;39.70;;;;;;;;;;6266972;28;20076;-48
2023/04/28 05:58:12;;;;;;;104.65;38.25;;;;;;;;;;6267635;28;20529;-50
2023/04/28 06:01:13;;;;;;;106.95;39.35;;;;;;;;;;6266548;28;20495;-51
2023/04/28 06:04:13;;;;;;;107.25;38.42;;;;;;;;;;6266331;28;20060;-57
2023/04/28 06:07:14;;;;;;;103.00;39.33;;;;;;;;;;6263911;28;20072;-49
2023/04/28 06:10:15;;;;;;;112.38;41.35;;;;;;;;;;6264657;28;20036;-48
2023/04/28 06:13:17;;;;;;;116.50;42.20;;;;;;;;;;6268164;28;20079;-48
2023/04/28 06:16:18;;;;;;;119.80;43.00;;;;;;;;;;6273880;28;20483;-49
2023/04/28 06:19:19;;;;;;;113.88;41.47;;;;;;;;;;6266699;28;20115;-48
2023/04/28 06:22:19;;;;;;;117.13;42.85;;;;;;;;;;6268051;28;20048;-51
2023/04/28 06:25:20;;;;;;;108.25;39.47;;;;;;;;;;6270105;28;20466;-46
2023/04/28 06:28:20;;;;;;;106.90;39.03;;;;;;;;;;6270538;28;20041;-48
2023/04/28 06:31:21;;;;;;;104.35;40.35;;;;;;;;;;6266877;28;20068;-47
2023/04/28 06:34:29;;;;;;;99.78;37.08;;;;;;;;;;6269758;28;20041;-49
2023/04/28 06:37:30;;;;;;;99.97;35.67;;;;;;;;;;6271738;28;20580;-55
2023/04/28 06:40:30;;;;;;;98.60;34.70;;;;;;;;;;6268043;28;20033;-46
2023/04/28 06:43:32;;;;;;;96.15;35.50;;;;;;;;;;6267047;28;20037;-50
2023/04/28 06:46:35;;;;;;;102.05;35.70;;;;;;;;;;6269266;28;20045;-57
2023/04/28 06:49:36;;;;;;;101.05;36.75;;;;;;;;;;6270134;28;20463;-47
2023/04/28 06:52:37;;;;;;;85.10;31.23;;;;;;;;;;6268244;28;20067;-47
2023/04/28 06:55:38;;;;;;;92.40;33.70;;;;;;;;;;6274987;28;20434;-46
2023/04/28 06:58:39;;;;;;;99.88;33.38;;;;;;;;;;6289439;28;20049;-47
2023/04/28 07:01:39;;;;;;;98.15;34.92;;;;;;;;;;6270255;28;20051;-48
2023/04/28 07:04:40;;;;;;;82.35;33.58;;;;;;;;;;6270276;28;20377;-47
2023/04/28 07:07:40;;;;;;;77.30;30.25;;;;;;;;;;6272381;28;20056;-48
2023/04/28 07:10:41;;;;;;;84.30;34.13;;;;;;;;;;6267356;28;20542;-46
2023/04/28 07:13:42;;;;;;;80.15;30.85;;;;;;;;;;6269148;28;20537;-50
2023/04/28 07:16:42;;;;;;;81.28;32.40;;;;;;;;;;6268489;28;20055;-53
2023/04/28 07:19:43;;;;;;;85.85;31.77;;;;;;;;;;6266875;28;20504;-52
2023/04/28 07:22:43;;;;;;;78.13;30.35;;;;;;;;;;6267158;28;20051;-46
2023/04/28 07:25:44;;;;;;;79.03;29.40;;;;;;;;;;6270665;28;20072;-50
2023/04/28 07:28:45;;;;;;;65.40;28.17;;;;;;;;;;6268318;28;20411;-49
2023/04/28 07:31:46;;;;;;;71.40;28.23;;;;;;;;;;6266817;28;20148;-55
2023/04/28 07:34:46;;;;;;;70.53;28.50;;;;;;;;;;6267314;28;20041;-50
2023/04/28 07:37:47;;;;;;;77.55;28.50;;;;;;;;;;6265505;28;20029;-45
2023/04/28 07:40:48;;;;;;;58.28;25.02;;;;;;;;;;6264944;28;20491;-47
2023/04/28 07:43:48;;;;;;;56.42;24.45;;;;;;;;;;6269833;28;20480;-46
2023/04/28 07:46:49;;;;;;;59.00;23.17;;;;;;;;;;6269253;28;20045;-48
2023/04/28 07:49:50;;;;;;;49.70;20.77;;;;;;;;;;6267332;28;20037;-46
2023/04/28 07:52:50;;;;;;;47.60;19.23;;;;;;;;;;6266950;28;20045;-48
2023/04/28 07:55:51;;;;;;;43.65;16.45;;;;;;;;;;6268282;28;20086;-50
2023/04/28 07:58:52;;;;;;;39.22;15.70;;;;;;;;;;6268264;28;20418;-46
2023/04/28 08:01:52;;;;;;;43.15;17.42;;;;;;;;;;6266726;28;20773;-55
2023/04/28 08:04:53;;;;;;;44.97;19.63;;;;;;;;;;6268388;28;20045;-46
2023/04/28 08:07:54;;;;;;;44.00;17.40;;;;;;;;;;6266688;28;20557;-55
2023/04/28 08:10:54;;;;;;;44.28;16.95;;;;;;;;;;6266109;28;20048;-47
2023/04/28 08:14:00;;;;;;;38.92;16.20;;;;;;;;;;6269275;28;20070;-47
2023/04/28 08:17:00;;;;;;;38.15;14.93;;;;;;;;;;6268580;28;20036;-50
2023/04/28 08:20:01;;;;;;;30.25;13.60;;;;;;;;;;6269005;28;20041;-47
2023/04/28 08:23:01;;;;;;;30.70;13.35;;;;;;;;;;6266816;28;20507;-50
2023/04/28 08:26:03;;;;;;;31.58;14.60;;;;;;;;;;6268603;28;20495;-57
2023/04/28 08:29:03;;;;;;;31.95;13.35;;;;;;;;;;6267584;28;20128;-49
2023/04/28 08:32:05;;;;;;;40.47;14.15;;;;;;;;;;6266804;28;20415;-51
2023/04/28 08:35:06;;;;;;;29.92;13.70;;;;;;;;;;6266478;28;20033;-47
2023/04/28 08:38:12;;;;;;;33.28;13.27;;;;;;;;;;6270000;28;20056;-48
2023/04/28 08:41:15;;;;;;;63.33;22.45;;;;;;;;;;6267582;28;20648;-55
2023/04/28 08:44:16;;;;;;;31.80;15.27;;;;;;;;;;6269103;28;20041;-47
2023/04/28 08:47:20;;;;;;;34.75;14.18;;;;;;;;;;6273391;28;20045;-47
2023/04/28 08:50:22;;;;;;;31.30;14.30;;;;;;;;;;6273228;28;20162;-48
2023/04/28 08:53:24;;;;;;;32.13;12.93;;;;;;;;;;6271520;28;20045;-47
2023/04/28 08:56:30;;;;;;;43.35;21.17;;;;;;;;;;6272489;28;20515;-56
2023/04/28 08:59:31;;;;;;;28.98;13.20;;;;;;;;;;6271238;28;20457;-47
2023/04/28 09:02:32;;;;;;;33.30;14.57;;;;;;;;;;6271914;28;20104;-49
2023/04/28 09:05:33;;;;;;;32.35;14.45;;;;;;;;;;6272297;28;20056;-48
2023/04/28 09:08:33;;;;;;;34.50;14.43;;;;;;;;;;6282284;28;20483;-47
2023/04/28 09:11:35;;;;;;;38.42;15.02;;;;;;;;;;6286883;28;20531;-47
2023/04/28 09:14:37;;;;;;;;;;;;;;;;;;6289649;28;20040;-51
2023/04/28 09:17:48;;;;;;;42.38;18.73;;;;;;;;;;6277341;28;19925;-47
2023/04/28 09:20:49;;;;;;;46.90;18.83;;;;;;;;;;6290933;28;20484;-51
2023/04/28 09:23:50;;;;;;;40.35;15.82;;;;;;;;;;6268013;28;20041;-47
2023/04/28 09:26:50;;;;;;;35.22;14.95;;;;;;;;;;6269524;28;20033;-49
2023/04/28 09:29:52;;;;;;;34.13;16.58;;;;;;;;;;6270143;28;20062;-50
2023/04/28 09:33:04;;;;;;;33.13;14.68;;;;;;;;;;6268480;28;20612;-47
2023/04/28 09:36:05;;;;;;;36.83;16.00;;;;;;;;;;6270078;28;20522;-50
2023/04/28 09:39:06;;;;;;;35.55;14.57;;;;;;;;;;6270510;28;20388;-48
2023/04/28 09:42:06;;;;;;;35.15;17.02;;;;;;;;;;6270560;28;20049;-46
2023/04/28 09:45:08;;;;;;;34.35;14.20;;;;;;;;;;6270170;28;20608;-49
2023/04/28 09:48:12;;;;;;;37.70;16.70;;;;;;;;;;6272847;28;20123;-47
2023/04/28 09:51:19;;;;;;;30.75;14.52;;;;;;;;;;6270060;28;20041;-50
2023/04/28 09:54:21;;;;;;;34.58;15.77;;;;;;;;;;6267407;28;20055;-48
2023/04/28 09:57:22;;;;;;;33.55;14.48;;;;;;;;;;6271501;28;20830;-54
2023/04/28 10:00:23;;;;;;;32.55;14.10;;;;;;;;;;6269400;28;20485;-49
2023/04/28 10:03:26;;;;;;;28.85;12.95;;;;;;;;;;6268238;28;20040;-48
2023/04/28 10:06:28;;;;;;;31.85;14.57;;;;;;;;;;6269842;28;20056;-49
2023/04/28 10:09:31;;;;;;;34.00;13.90;;;;;;;;;;6272795;28;20589;-48
2023/04/28 10:12:32;;;;;;;37.83;14.55;;;;;;;;;;6290287;28;20037;-59
2023/04/28 10:15:33;;;;;;;28.80;12.98;;;;;;;;;;6275203;28;20115;-54
2023/04/28 10:18:34;;;;;;;35.90;15.32;;;;;;;;;;6270025;28;20132;-60
2023/04/28 10:21:44;;;;;;;33.95;14.15;;;;;;;;;;6270522;28;20053;-47
2023/04/28 10:25:11;;;;;;;33.97;15.07;;;;;;;;;;6267477;28;20415;-48
2023/04/28 10:28:12;;;;;;;27.58;12.73;;;;;;;;;;6268402;28;20047;-47
2023/04/28 10:31:17;;;;;;;28.83;11.98;;;;;;;;;;6268787;28;20488;-49
2023/04/28 10:34:21;;;;;;;33.10;12.63;;;;;;;;;;6267278;28;20045;-48
2023/04/28 10:38:00;;;;;;;23.20;12.27;;;;;;;;;;6266689;28;20045;-50
2023/04/28 10:41:02;;;;;;;28.17;11.93;;;;;;;;;;6270034;28;20581;-48
2023/04/28 10:44:28;;;;;;;28.13;12.80;;;;;;;;;;6270582;28;20037;-51
2023/04/28 10:48:03;;;;;;;31.55;13.40;;;;;;;;;;6269474;28;20048;-47
2023/04/28 10:51:03;;;;;;;42.90;14.63;;;;;;;;;;6269248;28;20408;-47
2023/04/28 10:54:07;;;;;;;25.58;12.73;;;;;;;;;;6268636;28;20055;-48
2023/04/28 10:57:16;;;;;;;32.85;13.35;;;;;;;;;;6270019;28;20047;-57
2023/04/28 11:00:28;;;;;;;26.67;13.30;;;;;;;;;;6270025;28;20047;-49
2023/04/28 11:04:06;;;;;;;25.20;11.52;;;;;;;;;;6268690;28;20049;-47
2023/04/28 11:07:13;;;;;;;27.40;11.88;;;;;;;;;;6266075;28;20083;-50
2023/04/28 11:10:13;;;;;;;31.10;12.18;;;;;;;;;;6269434;28;20047;-48
2023/04/28 11:13:30;;;;;;;30.17;12.63;;;;;;;;;;6271156;28;20041;-48
2023/04/28 11:16:31;;;;;;;22.10;11.20;;;;;;;;;;6270466;28;20099;-48
2023/04/28 11:19:37;;;;;;;25.90;10.80;;;;;;;;;;6268380;28;20033;-48
2023/04/28 11:22:38;;;;;;;23.88;10.88;;;;;;;;;;6268572;28;20528;-51
2023/04/28 11:25:55;;;;;;;46.90;12.23;;;;;;;;;;6270359;28;20094;-59
2023/04/28 11:28:57;;;;;;;28.52;11.75;;;;;;;;;;6268768;28;20059;-52
2023/04/28 11:31:58;;;;;;;26.90;12.02;;;;;;;;;;6268754;28;20052;-48
2023/04/28 11:34:59;;;;;;;27.67;12.50;;;;;;;;;;6268573;28;20060;-48
2023/04/28 11:38:03;;;;;;;31.43;12.47;;;;;;;;;;6265160;28;20045;-48
2023/04/28 11:41:03;;;;;;;25.63;11.43;;;;;;;;;;6265283;28;20048;-47
2023/04/28 11:44:10;;;;;;;24.70;10.55;;;;;;;;;;6267141;28;21327;-50
2023/04/28 11:47:11;;;;;;;22.13;9.60;;;;;;;;;;6265452;28;20118;-47
2023/04/28 11:50:13;;;;;;;23.98;9.55;;;;;;;;;;6265507;28;20821;-48
2023/04/28 11:53:13;;;;;;;;;;;;;;;;;;6268168;28;20076;-51
2023/04/28 11:56:14;;;;;;;26.05;11.10;;;;;;;;;;6269069;28;19927;-48
2023/04/28 11:59:15;;;;;;;23.20;10.63;;;;;;;;;;6266468;28;20499;-47
2023/04/28 12:02:23;;;;;;;25.30;11.23;;;;;;;;;;6264265;28;20048;-48
2023/04/28 12:05:24;;;;;;;23.80;9.48;;;;;;;;;;6266853;28;20037;-48
2023/04/28 12:08:28;;;;;;;21.65;10.65;;;;;;;;;;6265530;28;20618;-48
2023/04/28 12:11:29;;;;;;;20.85;9.23;;;;;;;;;;6264269;28;20132;-48
2023/04/28 12:14:34;;;;;;;17.17;8.52;;;;;;;;;;6266045;28;20055;-49
2023/04/28 12:17:37;;;;;;;18.08;8.75;;;;;;;;;;6265869;28;20044;-50
2023/04/28 12:20:38;;;;;;;18.10;8.32;;;;;;;;;;6265076;28;20388;-52
2023/04/28 12:23:40;;;;;;;19.95;9.20;;;;;;;;;;6269157;28;20043;-48
2023/04/28 12:26:41;;;;;;;20.40;8.20;;;;;;;;;;6271681;28;20033;-59
2023/04/28 12:29:44;;;;;;;22.73;10.07;;;;;;;;;;6267754;28;20086;-48
2023/04/28 12:32:45;;;;;;;22.90;10.05;;;;;;;;;;6269099;28;20136;-49
2023/04/28 12:35:47;;;;;;;33.70;10.98;;;;;;;;;;6268635;28;20045;-49
2023/04/28 12:38:48;;;;;;;22.13;8.68;;;;;;;;;;6267482;28;20053;-47
2023/04/28 12:41:49;;;;;;;19.60;7.78;;;;;;;;;;6266456;28;20059;-51
2023/04/28 12:44:49;;;;;;;22.27;9.85;;;;;;;;;;6269179;28;20139;-49
2023/04/28 12:47:50;;;;;;;20.77;8.68;;;;;;;;;;6273144;28;20052;-51
2023/04/28 12:50:51;;;;;;;27.45;9.43;;;;;;;;;;6266663;28;20113;-49
2023/04/28 12:53:51;;;;;;;20.00;7.70;;;;;;;;;;6269538;28;20056;-48
2023/04/28 12:56:55;;;;;;;17.20;8.13;;;;;;;;;;6270053;28;20072;-52
2023/04/28 12:59:56;;;;;;;24.95;9.00;;;;;;;;;;6264679;28;20064;-50
2023/04/28 13:02:57;;;;;;;17.05;7.43;;;;;;;;;;6268691;28;20048;-48
2023/04/28 13:05:57;;;;;;;21.60;9.10;;;;;;;;;;6267720;28;20782;-49
2023/04/28 13:08:58;;;;;;;30.02;10.98;;;;;;;;;;6268969;28;20136;-53
2023/04/28 13:11:59;;;;;;;29.73;15.05;;;;;;;;;;6264188;28;20559;-49
2023/04/28 13:15:03;;;;;;;127.78;82.70;;;;;;;;;;6268069;28;20061;-50
2023/04/28 13:18:04;;;;;;;16.65;8.13;;;;;;;;;;6269955;28;20113;-49
2023/04/28 13:21:04;;;;;;;34.47;15.88;;;;;;;;;;6264680;28;20040;-56
2023/04/28 13:24:05;;;;;;;43.55;13.07;;;;;;;;;;6268674;28;20052;-48
2023/04/28 13:27:08;;;;;;;22.90;8.60;;;;;;;;;;6266375;28;20052;-51
2023/04/28 13:30:09;;;;;;;26.77;15.70;;;;;;;;;;6265446;28;20053;-50
2023/04/28 13:33:10;;;;;;;19.85;9.15;;;;;;;;;;6270753;28;20777;-49
2023/04/28 13:36:11;;;;;;;25.90;8.73;;;;;;;;;;6271400;28;20045;-51
2023/04/28 13:39:13;;;;;;;25.00;8.73;;;;;;;;;;6270346;28;20575;-53
2023/04/28 13:42:14;;;;;;;23.77;8.27;;;;;;;;;;6264236;28;20056;-51
2023/04/28 13:45:15;;;;;;;25.30;9.93;;;;;;;;;;6274493;28;20045;-54
2023/04/28 13:48:16;;;;;;;18.10;9.18;;;;;;;;;;6272776;28;20967;-50
2023/04/28 13:51:17;;;;;;;21.85;8.63;;;;;;;;;;6268999;28;20462;-53
2023/04/28 13:54:17;;;;;;;19.25;7.90;;;;;;;;;;6276519;28;20049;-47
2023/04/28 13:57:18;;;;;;;15.50;7.95;;;;;;;;;;6269919;28;20098;-50
2023/04/28 14:00:19;;;;;;;18.73;9.30;;;;;;;;;;6268065;28;20056;-50
2023/04/28 14:03:21;;;;;;;19.65;8.52;;;;;;;;;;6272697;28;20063;-49
2023/04/28 14:06:21;;;;;;;;;;;;;;;;;;6274305;28;20049;-54
2023/04/28 14:09:22;;;;;;;19.83;9.27;;;;;;;;;;6273963;28;19935;-50
2023/04/28 14:12:23;;;;;;;17.33;7.80;;;;;;;;;;6270766;28;20045;-49
2023/04/28 14:15:23;;;;;;;26.00;9.32;;;;;;;;;;6273799;28;20048;-59
2023/04/28 14:18:24;;;;;;;18.38;8.45;;;;;;;;;;6274746;28;20052;-50
2023/04/28 14:21:25;;;;;;;24.90;8.43;;;;;;;;;;6272112;28;20064;-52
2023/04/28 14:24:26;;;;;;;16.30;7.97;;;;;;;;;;6274908;28;20052;-48
2023/04/28 14:27:27;;;;;;;21.13;8.15;;;;;;;;;;6270185;28;20059;-50
2023/04/28 14:30:27;;;;;;;19.45;9.63;;;;;;;;;;6268336;28;20049;-50
2023/04/28 14:33:28;;;;;;;23.98;8.95;;;;;;;;;;6269597;28;20060;-49
2023/04/28 14:36:32;;;;;;;16.90;8.25;;;;;;;;;;6273105;28;20999;-50
2023/04/28 14:39:33;;;;;;;18.17;8.80;;;;;;;;;;6268934;28;20109;-51
2023/04/28 14:42:36;;;;;;;20.00;9.75;;;;;;;;;;6272849;28;20140;-61
2023/04/28 14:45:37;;;;;;;;;;;;;;;;;;6269584;28;20534;-47
2023/04/28 14:48:37;;;;;;;20.52;9.48;;;;;;;;;;6270492;28;20066;-51
2023/04/28 14:51:38;;;;;;;17.60;8.55;;;;;;;;;;6265874;28;20041;-52
2023/04/28 14:54:39;;;;;;;16.92;8.65;;;;;;;;;;6272757;28;20191;-51
2023/04/28 14:57:39;;;;;;;14.97;8.43;;;;;;;;;;6270880;28;20044;-47
2023/04/28 15:00:40;;;;;;;18.85;9.82;;;;;;;;;;6266710;28;20059;-50
2023/04/28 15:03:42;;;;;;;17.55;9.75;;;;;;;;;;6271960;28;20048;-52
2023/04/28 15:06:42;;;;;;;21.50;8.93;;;;;;;;;;6266881;28;20209;-49
2023/04/28 15:09:43;;;;;;;21.05;10.25;;;;;;;;;;6266146;28;20052;-56
2023/04/28 15:12:44;;;;;;;16.67;8.70;;;;;;;;;;6266427;28;20045;-49
2023/04/28 15:15:45;;;;;;;21.00;10.10;;;;;;;;;;6268280;28;20055;-49
2023/04/28 15:18:45;;;;;;;19.73;10.25;;;;;;;;;;6268773;28;20053;-49
2023/04/28 15:21:46;;;;;;;20.20;10.38;;;;;;;;;;6266770;28;20052;-52
2023/04/28 15:24:47;;;;;;;27.33;9.63;;;;;;;;;;6269167;28;20049;-48
2023/04/28 15:27:49;;;;;;;15.93;8.20;;;;;;;;;;6268790;28;20037;-48
2023/04/28 15:30:49;;;;;;;17.95;8.93;;;;;;;;;;6263640;28;20898;-54
2023/04/28 15:33:54;;;;;;;16.73;8.60;;;;;;;;;;6264756;28;20091;-49
2023/04/28 15:36:55;;;;;;;18.15;9.18;;;;;;;;;;6263678;28;20052;-49
2023/04/28 15:39:55;;;;;;;15.45;8.20;;;;;;;;;;6263412;28;20047;-47
2023/04/28 15:42:56;;;;;;;15.50;8.73;;;;;;;;;;6265480;28;20055;-53
2023/04/28 15:45:58;;;;;;;13.65;7.80;;;;;;;;;;6268910;28;20056;-50
2023/04/28 15:48:59;;;;;;;16.02;7.80;;;;;;;;;;6268914;28;20037;-51
2023/04/28 15:51:59;;;;;;;21.38;10.48;;;;;;;;;;6260817;28;20060;-49
2023/04/28 15:55:00;;;;;;;17.45;8.10;;;;;;;;;;6268243;28;20052;-50
2023/04/28 15:58:01;;;;;;;19.10;9.20;;;;;;;;;;6268634;28;20118;-50
2023/04/28 16:01:02;;;;;;;17.10;7.77;;;;;;;;;;6265429;28;20062;-51
2023/04/28 16:04:02;;;;;;;18.40;7.85;;;;;;;;;;6265568;28;20040;-50
2023/04/28 16:07:03;;;;;;;21.60;8.18;;;;;;;;;;6270243;28;20043;-50
2023/04/28 16:10:11;;;;;;;22.65;8.77;;;;;;;;;;6266920;28;20438;-50
2023/04/28 16:13:13;;;;;;;16.00;8.15;;;;;;;;;;6273677;28;20036;-52
2023/04/28 16:16:14;;;;;;;18.98;8.52;;;;;;;;;;6275882;28;20090;-53
2023/04/28 16:19:14;;;;;;;24.92;9.20;;;;;;;;;;6278545;28;20068;-51
2023/04/28 16:22:15;;;;;;;21.05;8.55;;;;;;;;;;6272961;28;20536;-50
2023/04/28 16:25:16;;;;;;;19.60;8.60;;;;;;;;;;6277633;28;20547;-48
2023/04/28 16:28:16;;;;;;;17.58;9.20;;;;;;;;;;6276664;28;20053;-53
2023/04/28 16:31:17;;;;;;;27.13;10.68;;;;;;;;;;6274177;28;20131;-47
2023/04/28 16:34:18;;;;;;;21.85;9.48;;;;;;;;;;6276560;28;20044;-52
2023/04/28 16:37:19;;;;;;;21.90;10.17;;;;;;;;;;6277696;28;20067;-49
2023/04/28 16:40:19;;;;;;;34.17;12.65;;;;;;;;;;6273794;28;20150;-50
2023/04/28 16:43:20;;;;;;;24.20;11.27;;;;;;;;;;6274848;28;20571;-52
2023/04/28 16:46:20;;;;;;;26.95;12.38;;;;;;;;;;6277115;28;20040;-49
2023/04/28 16:49:22;;;;;;;21.08;11.48;;;;;;;;;;6277617;28;21257;-49
2023/04/28 16:52:22;;;;;;;24.88;11.70;;;;;;;;;;6272236;28;20067;-53
2023/04/28 16:55:23;;;;;;;31.15;13.60;;;;;;;;;;6277117;28;20526;-59
2023/04/28 16:58:23;;;;;;;32.67;13.40;;;;;;;;;;6276014;28;20056;-48
2023/04/28 17:01:25;;;;;;;29.58;13.80;;;;;;;;;;6273187;28;20381;-51
2023/04/28 17:04:25;;;;;;;30.60;14.27;;;;;;;;;;6279862;28;20601;-47
2023/04/28 17:07:26;;;;;;;29.27;13.90;;;;;;;;;;6281447;28;20064;-48
2023/04/28 17:10:27;;;;;;;30.38;14.25;;;;;;;;;;6279525;28;20052;-49
2023/04/28 17:13:27;;;;;;;39.13;15.60;;;;;;;;;;6280305;28;20052;-50
2023/04/28 17:16:32;;;;;;;40.78;16.55;;;;;;;;;;6281395;28;21391;-49
2023/04/28 17:19:32;;;;;;;32.70;16.55;;;;;;;;;;6278952;28;20048;-48
2023/04/28 17:22:34;;;;;;;34.83;14.85;;;;;;;;;;6279740;28;20086;-49
2023/04/28 17:25:37;;;;;;;36.90;17.17;;;;;;;;;;6279051;28;20041;-53
2023/04/28 17:28:39;;;;;;;32.80;15.85;;;;;;;;;;6281318;28;20044;-50
2023/04/28 17:31:40;;;;;;;38.35;16.02;;;;;;;;;;6278491;28;20130;-49
2023/04/28 17:34:40;;;;;;;36.28;17.88;;;;;;;;;;6280925;28;20462;-51
2023/04/28 17:37:41;;;;;;;35.42;16.98;;;;;;;;;;6280921;28;20167;-48
2023/04/28 17:40:47;;;;;;;31.70;14.48;;;;;;;;;;6275970;28;20096;-49